Hiwasse, Arkansas
Current Conditions -  °F | °C
As of 5:15 AM on Sunday 21 Dec 2014 (Local Time) from KVBT Reporting Station
Overcast Overcast  
Wind Chill: 39°   Ceiling: 1800
Heat Index: 43°   Visibility: 5mi
Dew Point: 37°   Wind: 6mph
Humidity: 81%   Direction: 180°S
Pressure: 30.13"   Gusts: NA
Location:  36.43°N, 94.33°W
Report Text: KVBT 211115Z AUTO 18005KT 5SM OVC018 06/03 A3013 RMK AO1
Loading
Personal Weather Stations






























Interactive Weather Map New forecast layout! Learn more

10-Day Weather Forecast

Advertisements
Track Severe Weather on mobile